sensor_id;sensor_type;location;lat;lon;timestamp;temperature;humidity
5136;DHT22;2586;48.710;9.202;2023-04-25T00:02:25;7.40;1.00
5136;DHT22;2586;48.710;9.202;2023-04-25T00:04:51;7.40;1.00
5136;DHT22;2586;48.710;9.202;2023-04-25T00:07:17;7.40;99.90
5136;DHT22;2586;48.710;9.202;2023-04-25T00:09:42;7.40;99.90
5136;DHT22;2586;48.710;9.202;2023-04-25T00:12:08;7.30;1.00
5136;DHT22;2586;48.710;9.202;2023-04-25T00:14:34;7.30;1.00
5136;DHT22;2586;48.710;9.202;2023-04-25T00:17:01;7.40;1.00
5136;DHT22;2586;48.710;9.202;2023-04-25T00:19:27;7.30;99.90
5136;DHT22;2586;48.710;9.202;2023-04-25T00:21:54;7.40;99.90
5136;DHT22;2586;48.710;9.202;2023-04-25T00:24:20;7.40;64.20
5136;DHT22;2586;48.710;9.202;2023-04-25T00:26:45;7.40;1.00
5136;DHT22;2586;48.710;9.202;2023-04-25T00:29:11;7.40;99.90
5136;DHT22;2586;48.710;9.202;2023-04-25T00:31:37;7.40;1.00
5136;DHT22;2586;48.710;9.202;2023-04-25T00:34:02;7.40;99.90
5136;DHT22;2586;48.710;9.202;2023-04-25T00:36:28;7.30;1.00
5136;DHT22;2586;48.710;9.202;2023-04-25T00:38:53;7.30;99.90
5136;DHT22;2586;48.710;9.202;2023-04-25T00:41:20;7.20;1.00
5136;DHT22;2586;48.710;9.202;2023-04-25T00:43:46;7.10;1.00
5136;DHT22;2586;48.710;9.202;2023-04-25T00:46:13;7.10;99.90
5136;DHT22;2586;48.710;9.202;2023-04-25T00:48:38;7.10;1.00
5136;DHT22;2586;48.710;9.202;2023-04-25T00:51:04;7.10;1.00
5136;DHT22;2586;48.710;9.202;2023-04-25T00:53:30;7.10;78.00
5136;DHT22;2586;48.710;9.202;2023-04-25T00:55:57;7.10;1.00
5136;DHT22;2586;48.710;9.202;2023-04-25T00:58:23;7.20;66.00
5136;DHT22;2586;48.710;9.202;2023-04-25T01:00:50;7.20;99.90
5136;DHT22;2586;48.710;9.202;2023-04-25T01:03:17;7.20;1.00
5136;DHT22;2586;48.710;9.202;2023-04-25T01:05:45;7.20;99.90
5136;DHT22;2586;48.710;9.202;2023-04-25T01:08:12;7.30;99.90
5136;DHT22;2586;48.710;9.202;2023-04-25T01:10:37;7.30;1.00
5136;DHT22;2586;48.710;9.202;2023-04-25T01:13:03;7.30;1.00
5136;DHT22;2586;48.710;9.202;2023-04-25T01:15:28;7.40;99.90
5136;DHT22;2586;48.710;9.202;2023-04-25T01:17:54;7.40;99.90
5136;DHT22;2586;48.710;9.202;2023-04-25T01:20:24;7.40;99.90
5136;DHT22;2586;48.710;9.202;2023-04-25T01:22:51;7.40;99.90
5136;DHT22;2586;48.710;9.202;2023-04-25T01:25:18;7.40;1.00
5136;DHT22;2586;48.710;9.202;2023-04-25T01:27:45;7.40;1.00
5136;DHT22;2586;48.710;9.202;2023-04-25T01:30:11;7.40;1.00
5136;DHT22;2586;48.710;9.202;2023-04-25T01:32:37;7.40;1.00
5136;DHT22;2586;48.710;9.202;2023-04-25T01:35:10;7.40;1.00
5136;DHT22;2586;48.710;9.202;2023-04-25T01:37:40;7.40;1.00
5136;DHT22;2586;48.710;9.202;2023-04-25T01:40:08;7.40;99.90
5136;DHT22;2586;48.710;9.202;2023-04-25T01:42:36;7.40;99.90
5136;DHT22;2586;48.710;9.202;2023-04-25T01:45:03;7.40;99.90
5136;DHT22;2586;48.710;9.202;2023-04-25T01:47:28;7.30;1.00
5136;DHT22;2586;48.710;9.202;2023-04-25T01:49:54;7.20;99.90
5136;DHT22;2586;48.710;9.202;2023-04-25T01:52:20;7.20;1.00
5136;DHT22;2586;48.710;9.202;2023-04-25T01:54:46;7.20;99.90
5136;DHT22;2586;48.710;9.202;2023-04-25T01:57:12;7.20;99.90
5136;DHT22;2586;48.710;9.202;2023-04-25T01:59:38;7.20;1.00
5136;DHT22;2586;48.710;9.202;2023-04-25T02:02:04;7.10;99.90
5136;DHT22;2586;48.710;9.202;2023-04-25T02:04:30;7.10;1.00
5136;DHT22;2586;48.710;9.202;2023-04-25T02:06:56;7.10;99.90
5136;DHT22;2586;48.710;9.202;2023-04-25T02:09:22;7.10;99.90
5136;DHT22;2586;48.710;9.202;2023-04-25T02:11:48;7.10;99.90
5136;DHT22;2586;48.710;9.202;2023-04-25T02:14:13;7.00;99.90
5136;DHT22;2586;48.710;9.202;2023-04-25T02:16:39;7.00;99.90
5136;DHT22;2586;48.710;9.202;2023-04-25T02:19:05;7.00;99.90
5136;DHT22;2586;48.710;9.202;2023-04-25T02:21:31;7.00;99.90
5136;DHT22;2586;48.710;9.202;2023-04-25T02:23:57;7.00;99.90
5136;DHT22;2586;48.710;9.202;2023-04-25T02:26:23;6.90;99.90
5136;DHT22;2586;48.710;9.202;2023-04-25T02:28:49;6.90;99.90
5136;DHT22;2586;48.710;9.202;2023-04-25T02:31:15;6.90;1.00
5136;DHT22;2586;48.710;9.202;2023-04-25T02:33:41;6.80;1.00
5136;DHT22;2586;48.710;9.202;2023-04-25T02:36:07;6.80;1.00
5136;DHT22;2586;48.710;9.202;2023-04-25T02:38:33;6.80;1.00
5136;DHT22;2586;48.710;9.202;2023-04-25T02:40:59;6.90;99.90
5136;DHT22;2586;48.710;9.202;2023-04-25T02:43:25;6.90;1.00
5136;DHT22;2586;48.710;9.202;2023-04-25T02:45:50;6.80;99.90
5136;DHT22;2586;48.710;9.202;2023-04-25T02:48:16;6.80;99.90
5136;DHT22;2586;48.710;9.202;2023-04-25T02:50:41;6.80;99.90
5136;DHT22;2586;48.710;9.202;2023-04-25T02:53:07;6.70;99.90
5136;DHT22;2586;48.710;9.202;2023-04-25T02:55:33;6.80;1.00
5136;DHT22;2586;48.710;9.202;2023-04-25T02:57:58;6.80;1.00
5136;DHT22;2586;48.710;9.202;2023-04-25T03:00:24;6.70;99.90
5136;DHT22;2586;48.710;9.202;2023-04-25T03:02:50;6.70;99.90
5136;DHT22;2586;48.710;9.202;2023-04-25T03:05:16;6.70;1.00
5136;DHT22;2586;48.710;9.202;2023-04-25T03:07:42;6.70;99.90
5136;DHT22;2586;48.710;9.202;2023-04-25T03:10:09;6.70;99.90
5136;DHT22;2586;48.710;9.202;2023-04-25T03:12:35;6.80;99.90
5136;DHT22;2586;48.710;9.202;2023-04-25T03:15:01;6.80;1.00
5136;DHT22;2586;48.710;9.202;2023-04-25T03:17:27;6.70;99.90
5136;DHT22;2586;48.710;9.202;2023-04-25T03:19:52;6.80;99.90
5136;DHT22;2586;48.710;9.202;2023-04-25T03:22:18;6.80;33.10
5136;DHT22;2586;48.710;9.202;2023-04-25T03:24:43;6.80;1.00
5136;DHT22;2586;48.710;9.202;2023-04-25T03:27:09;6.80;62.40
5136;DHT22;2586;48.710;9.202;2023-04-25T03:29:34;6.80;1.00
5136;DHT22;2586;48.710;9.202;2023-04-25T03:32:00;6.90;99.90
5136;DHT22;2586;48.710;9.202;2023-04-25T03:34:26;6.80;1.00
5136;DHT22;2586;48.710;9.202;2023-04-25T03:36:51;6.90;1.00
5136;DHT22;2586;48.710;9.202;2023-04-25T03:39:17;6.90;1.00
5136;DHT22;2586;48.710;9.202;2023-04-25T03:41:43;6.80;1.00
5136;DHT22;2586;48.710;9.202;2023-04-25T03:44:08;6.80;1.00
5136;DHT22;2586;48.710;9.202;2023-04-25T03:46:34;6.80;99.90
5136;DHT22;2586;48.710;9.202;2023-04-25T03:48:59;6.80;1.00
5136;DHT22;2586;48.710;9.202;2023-04-25T03:51:25;6.80;1.00
5136;DHT22;2586;48.710;9.202;2023-04-25T03:53:51;6.80;1.00
5136;DHT22;2586;48.710;9.202;2023-04-25T03:56:17;6.70;1.00
5136;DHT22;2586;48.710;9.202;2023-04-25T03:58:43;6.60;99.90
5136;DHT22;2586;48.710;9.202;2023-04-25T04:01:09;6.60;99.90
5136;DHT22;2586;48.710;9.202;2023-04-25T04:03:35;6.60;99.90
5136;DHT22;2586;48.710;9.202;2023-04-25T04:06:04;6.60;99.90
5136;DHT22;2586;48.710;9.202;2023-04-25T04:08:31;6.60;1.00
5136;DHT22;2586;48.710;9.202;2023-04-25T04:10:57;6.60;99.90
5136;DHT22;2586;48.710;9.202;2023-04-25T04:13:23;6.60;99.90
5136;DHT22;2586;48.710;9.202;2023-04-25T04:15:49;6.60;93.00
5136;DHT22;2586;48.710;9.202;2023-04-25T04:18:14;6.60;99.90
5136;DHT22;2586;48.710;9.202;2023-04-25T04:20:40;6.60;99.90
5136;DHT22;2586;48.710;9.202;2023-04-25T04:23:06;6.60;1.00
5136;DHT22;2586;48.710;9.202;2023-04-25T04:25:31;6.60;1.00
5136;DHT22;2586;48.710;9.202;2023-04-25T04:27:57;6.60;1.00
5136;DHT22;2586;48.710;9.202;2023-04-25T04:30:24;6.60;1.00
5136;DHT22;2586;48.710;9.202;2023-04-25T04:32:51;6.60;1.00
5136;DHT22;2586;48.710;9.202;2023-04-25T04:35:16;6.60;1.00
5136;DHT22;2586;48.710;9.202;2023-04-25T04:37:42;6.60;1.00
5136;DHT22;2586;48.710;9.202;2023-04-25T04:40:09;6.60;1.00
5136;DHT22;2586;48.710;9.202;2023-04-25T04:42:35;6.70;1.00
5136;DHT22;2586;48.710;9.202;2023-04-25T04:45:01;6.80;1.00
5136;DHT22;2586;48.710;9.202;2023-04-25T04:47:28;6.80;19.70
5136;DHT22;2586;48.710;9.202;2023-04-25T04:49:56;6.80;1.00
5136;DHT22;2586;48.710;9.202;2023-04-25T04:52:22;6.80;1.00
5136;DHT22;2586;48.710;9.202;2023-04-25T04:54:48;6.90;1.00
5136;DHT22;2586;48.710;9.202;2023-04-25T04:57:13;6.90;1.00
5136;DHT22;2586;48.710;9.202;2023-04-25T04:59:39;6.90;99.90
5136;DHT22;2586;48.710;9.202;2023-04-25T05:02:05;6.90;99.90
5136;DHT22;2586;48.710;9.202;2023-04-25T05:04:30;7.00;1.00
5136;DHT22;2586;48.710;9.202;2023-04-25T05:06:56;7.00;99.90
5136;DHT22;2586;48.710;9.202;2023-04-25T05:09:21;7.00;20.10
5136;DHT22;2586;48.710;9.202;2023-04-25T05:11:51;7.00;99.90
5136;DHT22;2586;48.710;9.202;2023-04-25T05:14:16;7.00;30.30
5136;DHT22;2586;48.710;9.202;2023-04-25T05:16:43;7.10;99.90
5136;DHT22;2586;48.710;9.202;2023-04-25T05:19:09;7.10;99.90
5136;DHT22;2586;48.710;9.202;2023-04-25T05:21:34;7.10;99.90
5136;DHT22;2586;48.710;9.202;2023-04-25T05:24:01;7.10;99.90
5136;DHT22;2586;48.710;9.202;2023-04-25T05:26:26;7.10;99.90
5136;DHT22;2586;48.710;9.202;2023-04-25T05:28:56;7.10;99.90
5136;DHT22;2586;48.710;9.202;2023-04-25T05:31:23;7.10;99.90
5136;DHT22;2586;48.710;9.202;2023-04-25T05:33:49;7.00;99.90
5136;DHT22;2586;48.710;9.202;2023-04-25T05:36:14;7.10;99.90
5136;DHT22;2586;48.710;9.202;2023-04-25T05:38:40;7.10;1.00
5136;DHT22;2586;48.710;9.202;2023-04-25T05:41:05;7.20;1.00
5136;DHT22;2586;48.710;9.202;2023-04-25T05:43:31;7.20;47.80
5136;DHT22;2586;48.710;9.202;2023-04-25T05:45:56;7.30;99.90
5136;DHT22;2586;48.710;9.202;2023-04-25T05:48:22;7.30;1.00
5136;DHT22;2586;48.710;9.202;2023-04-25T05:50:47;7.40;1.00
5136;DHT22;2586;48.710;9.202;2023-04-25T05:53:13;7.50;99.90
5136;DHT22;2586;48.710;9.202;2023-04-25T05:55:39;7.60;99.90
5136;DHT22;2586;48.710;9.202;2023-04-25T05:58:05;7.60;1.00
5136;DHT22;2586;48.710;9.202;2023-04-25T06:00:32;7.70;99.90
5136;DHT22;2586;48.710;9.202;2023-04-25T06:02:57;7.80;99.90
5136;DHT22;2586;48.710;9.202;2023-04-25T06:05:23;7.80;99.90
5136;DHT22;2586;48.710;9.202;2023-04-25T06:07:48;7.90;99.90
5136;DHT22;2586;48.710;9.202;2023-04-25T06:10:14;7.80;1.00
5136;DHT22;2586;48.710;9.202;2023-04-25T06:12:40;7.80;1.00
5136;DHT22;2586;48.710;9.202;2023-04-25T06:15:06;7.70;1.00
5136;DHT22;2586;48.710;9.202;2023-04-25T06:17:32;7.80;1.00
5136;DHT22;2586;48.710;9.202;2023-04-25T06:19:58;7.90;1.00
5136;DHT22;2586;48.710;9.202;2023-04-25T06:22:24;8.10;99.90
5136;DHT22;2586;48.710;9.202;2023-04-25T06:24:49;8.20;1.70
5136;DHT22;2586;48.710;9.202;2023-04-25T06:27:15;8.30;1.00
5136;DHT22;2586;48.710;9.202;2023-04-25T06:29:40;8.40;1.00
5136;DHT22;2586;48.710;9.202;2023-04-25T06:32:06;8.40;99.90
5136;DHT22;2586;48.710;9.202;2023-04-25T06:34:31;8.40;89.90
5136;DHT22;2586;48.710;9.202;2023-04-25T06:36:57;8.40;99.90
5136;DHT22;2586;48.710;9.202;2023-04-25T06:39:22;8.40;1.00
5136;DHT22;2586;48.710;9.202;2023-04-25T06:41:50;8.30;99.90
5136;DHT22;2586;48.710;9.202;2023-04-25T06:44:15;8.30;99.90
5136;DHT22;2586;48.710;9.202;2023-04-25T06:46:41;8.20;99.90
5136;DHT22;2586;48.710;9.202;2023-04-25T06:49:07;8.10;99.90
5136;DHT22;2586;48.710;9.202;2023-04-25T06:51:32;8.00;99.90
5136;DHT22;2586;48.710;9.202;2023-04-25T06:53:58;7.80;18.50
5136;DHT22;2586;48.710;9.202;2023-04-25T06:56:24;7.70;99.90
5136;DHT22;2586;48.710;9.202;2023-04-25T06:58:49;7.70;69.30
5136;DHT22;2586;48.710;9.202;2023-04-25T07:01:15;7.70;99.90
5136;DHT22;2586;48.710;9.202;2023-04-25T07:03:41;7.80;1.00
5136;DHT22;2586;48.710;9.202;2023-04-25T07:06:07;7.80;99.90
5136;DHT22;2586;48.710;9.202;2023-04-25T07:08:32;7.70;99.90
5136;DHT22;2586;48.710;9.202;2023-04-25T07:10:58;7.70;99.90
5136;DHT22;2586;48.710;9.202;2023-04-25T07:13:23;7.60;99.90
5136;DHT22;2586;48.710;9.202;2023-04-25T07:15:49;7.60;1.00
5136;DHT22;2586;48.710;9.202;2023-04-25T07:18:14;7.80;99.90
5136;DHT22;2586;48.710;9.202;2023-04-25T07:20:40;7.90;1.00
5136;DHT22;2586;48.710;9.202;2023-04-25T07:23:06;7.90;99.90
5136;DHT22;2586;48.710;9.202;2023-04-25T07:25:32;8.00;99.90
5136;DHT22;2586;48.710;9.202;2023-04-25T07:27:57;8.10;99.90
5136;DHT22;2586;48.710;9.202;2023-04-25T07:30:23;8.00;99.90
5136;DHT22;2586;48.710;9.202;2023-04-25T07:32:49;7.90;99.90
5136;DHT22;2586;48.710;9.202;2023-04-25T07:35:15;7.70;99.90
5136;DHT22;2586;48.710;9.202;2023-04-25T07:37:41;7.50;1.00
5136;DHT22;2586;48.710;9.202;2023-04-25T07:40:07;7.60;1.00
5136;DHT22;2586;48.710;9.202;2023-04-25T07:42:34;7.50;99.90
5136;DHT22;2586;48.710;9.202;2023-04-25T07:45:00;7.50;62.00
5136;DHT22;2586;48.710;9.202;2023-04-25T07:47:26;7.50;99.90
5136;DHT22;2586;48.710;9.202;2023-04-25T07:49:52;7.40;99.90
5136;DHT22;2586;48.710;9.202;2023-04-25T07:52:17;7.40;41.60
5136;DHT22;2586;48.710;9.202;2023-04-25T07:54:43;7.40;99.90
5136;DHT22;2586;48.710;9.202;2023-04-25T07:57:08;7.40;1.00
5136;DHT22;2586;48.710;9.202;2023-04-25T07:59:34;7.50;24.00
5136;DHT22;2586;48.710;9.202;2023-04-25T08:02:00;7.50;1.00
5136;DHT22;2586;48.710;9.202;2023-04-25T08:04:26;7.50;99.90
5136;DHT22;2586;48.710;9.202;2023-04-25T08:06:52;7.50;1.00
5136;DHT22;2586;48.710;9.202;2023-04-25T08:09:19;7.60;1.00
5136;DHT22;2586;48.710;9.202;2023-04-25T08:11:45;7.50;1.00
5136;DHT22;2586;48.710;9.202;2023-04-25T08:14:11;7.40;99.90
5136;DHT22;2586;48.710;9.202;2023-04-25T08:16:37;7.40;1.00
5136;DHT22;2586;48.710;9.202;2023-04-25T08:19:03;7.40;1.00
5136;DHT22;2586;48.710;9.202;2023-04-25T08:21:28;7.30;1.00
5136;DHT22;2586;48.710;9.202;2023-04-25T08:23:54;7.30;65.10
5136;DHT22;2586;48.710;9.202;2023-04-25T08:26:19;7.40;1.00
5136;DHT22;2586;48.710;9.202;2023-04-25T08:28:46;7.40;1.00
5136;DHT22;2586;48.710;9.202;2023-04-25T08:31:11;7.30;96.70
5136;DHT22;2586;48.710;9.202;2023-04-25T08:33:37;7.30;1.00
5136;DHT22;2586;48.710;9.202;2023-04-25T08:36:03;7.30;1.00
5136;DHT22;2586;48.710;9.202;2023-04-25T08:38:28;7.30;99.90
5136;DHT22;2586;48.710;9.202;2023-04-25T08:40:54;7.30;1.00
5136;DHT22;2586;48.710;9.202;2023-04-25T08:43:20;7.40;99.90
5136;DHT22;2586;48.710;9.202;2023-04-25T08:45:47;7.40;25.20
5136;DHT22;2586;48.710;9.202;2023-04-25T08:48:15;7.40;99.90
5136;DHT22;2586;48.710;9.202;2023-04-25T08:50:52;7.40;99.90
5136;DHT22;2586;48.710;9.202;2023-04-25T08:53:30;7.50;1.00
5136;DHT22;2586;48.710;9.202;2023-04-25T08:55:58;7.50;1.00
5136;DHT22;2586;48.710;9.202;2023-04-25T08:58:23;7.40;1.00
5136;DHT22;2586;48.710;9.202;2023-04-25T09:00:51;7.40;1.00
5136;DHT22;2586;48.710;9.202;2023-04-25T09:03:17;7.30;99.90
5136;DHT22;2586;48.710;9.202;2023-04-25T09:05:43;7.40;1.00
5136;DHT22;2586;48.710;9.202;2023-04-25T09:08:09;7.40;1.00
5136;DHT22;2586;48.710;9.202;2023-04-25T09:10:36;7.40;1.00
5136;DHT22;2586;48.710;9.202;2023-04-25T09:13:06;7.50;1.00
5136;DHT22;2586;48.710;9.202;2023-04-25T09:15:32;7.50;1.00
5136;DHT22;2586;48.710;9.202;2023-04-25T09:18:01;7.50;99.90
5136;DHT22;2586;48.710;9.202;2023-04-25T09:20:27;7.50;9.90
5136;DHT22;2586;48.710;9.202;2023-04-25T09:23:04;7.50;1.00
5136;DHT22;2586;48.710;9.202;2023-04-25T09:25:37;7.50;99.90
5136;DHT22;2586;48.710;9.202;2023-04-25T09:28:05;7.40;1.00
5136;DHT22;2586;48.710;9.202;2023-04-25T09:30:33;7.50;1.00
5136;DHT22;2586;48.710;9.202;2023-04-25T09:33:07;7.50;1.00
5136;DHT22;2586;48.710;9.202;2023-04-25T09:35:41;7.40;1.00
5136;DHT22;2586;48.710;9.202;2023-04-25T09:38:11;7.30;99.90
5136;DHT22;2586;48.710;9.202;2023-04-25T09:40:45;7.30;99.90
5136;DHT22;2586;48.710;9.202;2023-04-25T09:43:21;7.40;99.90
5136;DHT22;2586;48.710;9.202;2023-04-25T09:45:47;7.50;1.00
5136;DHT22;2586;48.710;9.202;2023-04-25T09:48:20;7.50;99.90
5136;DHT22;2586;48.710;9.202;2023-04-25T09:51:10;7.40;1.00
5136;DHT22;2586;48.710;9.202;2023-04-25T09:53:37;7.40;1.00
5136;DHT22;2586;48.710;9.202;2023-04-25T09:56:09;7.40;99.90
5136;DHT22;2586;48.710;9.202;2023-04-25T09:58:36;7.30;1.00
5136;DHT22;2586;48.710;9.202;2023-04-25T10:01:07;7.10;1.00
5136;DHT22;2586;48.710;9.202;2023-04-25T10:03:35;7.10;99.90
5136;DHT22;2586;48.710;9.202;2023-04-25T10:06:08;7.10;1.00
5136;DHT22;2586;48.710;9.202;2023-04-25T10:08:36;7.00;1.00
5136;DHT22;2586;48.710;9.202;2023-04-25T10:11:04;7.10;1.00
5136;DHT22;2586;48.710;9.202;2023-04-25T10:13:31;7.10;29.50
5136;DHT22;2586;48.710;9.202;2023-04-25T10:16:02;6.90;99.90
5136;DHT22;2586;48.710;9.202;2023-04-25T10:18:29;6.80;1.00
5136;DHT22;2586;48.710;9.202;2023-04-25T10:20:57;6.80;99.90
5136;DHT22;2586;48.710;9.202;2023-04-25T10:23:23;6.80;1.00
5136;DHT22;2586;48.710;9.202;2023-04-25T10:25:50;6.80;1.00
5136;DHT22;2586;48.710;9.202;2023-04-25T10:28:17;6.70;1.00
5136;DHT22;2586;48.710;9.202;2023-04-25T10:31:02;6.80;1.00
5136;DHT22;2586;48.710;9.202;2023-04-25T10:33:39;6.80;1.00
5136;DHT22;2586;48.710;9.202;2023-04-25T10:36:19;6.90;90.00
5136;DHT22;2586;48.710;9.202;2023-04-25T10:38:47;7.10;99.90
5136;DHT22;2586;48.710;9.202;2023-04-25T10:41:14;7.10;1.00
5136;DHT22;2586;48.710;9.202;2023-04-25T10:43:41;7.00;99.90
5136;DHT22;2586;48.710;9.202;2023-04-25T10:46:16;6.90;99.90
5136;DHT22;2586;48.710;9.202;2023-04-25T10:48:50;6.90;1.00
5136;DHT22;2586;48.710;9.202;2023-04-25T10:51:19;6.90;99.90
5136;DHT22;2586;48.710;9.202;2023-04-25T10:56:27;6.70;99.90
5136;DHT22;2586;48.710;9.202;2023-04-25T11:01:46;6.70;99.90
5136;DHT22;2586;48.710;9.202;2023-04-25T11:07:02;6.80;99.90
5136;DHT22;2586;48.710;9.202;2023-04-25T11:09:30;6.90;99.90
5136;DHT22;2586;48.710;9.202;2023-04-25T11:11:58;6.90;1.00
5136;DHT22;2586;48.710;9.202;2023-04-25T11:14:26;6.90;1.00
5136;DHT22;2586;48.710;9.202;2023-04-25T11:16:56;6.80;7.10
5136;DHT22;2586;48.710;9.202;2023-04-25T11:19:23;6.70;1.00
5136;DHT22;2586;48.710;9.202;2023-04-25T11:21:49;6.60;1.00
5136;DHT22;2586;48.710;9.202;2023-04-25T11:24:16;6.60;98.00
5136;DHT22;2586;48.710;9.202;2023-04-25T11:26:51;6.80;99.90
5136;DHT22;2586;48.710;9.202;2023-04-25T11:29:17;6.80;99.90
5136;DHT22;2586;48.710;9.202;2023-04-25T11:31:45;7.00;99.90
5136;DHT22;2586;48.710;9.202;2023-04-25T11:34:11;7.00;1.00
5136;DHT22;2586;48.710;9.202;2023-04-25T11:36:38;7.10;1.00
5136;DHT22;2586;48.710;9.202;2023-04-25T11:39:04;7.20;1.00
5136;DHT22;2586;48.710;9.202;2023-04-25T11:41:31;7.40;1.00
5136;DHT22;2586;48.710;9.202;2023-04-25T11:43:56;7.60;1.00
5136;DHT22;2586;48.710;9.202;2023-04-25T11:46:22;7.80;99.90
5136;DHT22;2586;48.710;9.202;2023-04-25T11:48:48;7.40;99.90
5136;DHT22;2586;48.710;9.202;2023-04-25T11:51:15;7.70;1.00
5136;DHT22;2586;48.710;9.202;2023-04-25T11:53:42;7.90;99.90
5136;DHT22;2586;48.710;9.202;2023-04-25T11:56:10;8.00;83.60
5136;DHT22;2586;48.710;9.202;2023-04-25T11:58:59;8.10;99.90
5136;DHT22;2586;48.710;9.202;2023-04-25T12:01:33;8.20;99.90
5136;DHT22;2586;48.710;9.202;2023-04-25T12:04:20;8.40;99.90
5136;DHT22;2586;48.710;9.202;2023-04-25T12:06:48;8.60;1.00
5136;DHT22;2586;48.710;9.202;2023-04-25T12:09:15;8.50;99.90
5136;DHT22;2586;48.710;9.202;2023-04-25T12:11:45;8.30;99.90
5136;DHT22;2586;48.710;9.202;2023-04-25T12:14:11;8.30;99.90
5136;DHT22;2586;48.710;9.202;2023-04-25T12:16:46;8.40;1.00
5136;DHT22;2586;48.710;9.202;2023-04-25T12:19:16;8.50;83.50
5136;DHT22;2586;48.710;9.202;2023-04-25T12:21:42;8.60;1.00
5136;DHT22;2586;48.710;9.202;2023-04-25T12:24:13;8.40;1.00
5136;DHT22;2586;48.710;9.202;2023-04-25T12:26:49;8.00;99.90
5136;DHT22;2586;48.710;9.202;2023-04-25T12:29:17;7.70;91.40
5136;DHT22;2586;48.710;9.202;2023-04-25T12:31:42;7.70;1.00
5136;DHT22;2586;48.710;9.202;2023-04-25T12:34:08;7.90;99.90
5136;DHT22;2586;48.710;9.202;2023-04-25T12:36:33;8.00;1.00
5136;DHT22;2586;48.710;9.202;2023-04-25T12:38:59;8.10;99.90
5136;DHT22;2586;48.710;9.202;2023-04-25T12:41:29;8.10;1.00
5136;DHT22;2586;48.710;9.202;2023-04-25T12:43:55;8.10;1.00
5136;DHT22;2586;48.710;9.202;2023-04-25T12:46:21;8.10;99.90
5136;DHT22;2586;48.710;9.202;2023-04-25T12:48:48;8.10;99.90
5136;DHT22;2586;48.710;9.202;2023-04-25T12:51:13;7.90;50.00
5136;DHT22;2586;48.710;9.202;2023-04-25T12:53:39;7.80;1.00
5136;DHT22;2586;48.710;9.202;2023-04-25T12:56:09;8.00;99.90
5136;DHT22;2586;48.710;9.202;2023-04-25T12:58:35;8.10;99.90
5136;DHT22;2586;48.710;9.202;2023-04-25T13:01:00;8.30;99.90
5136;DHT22;2586;48.710;9.202;2023-04-25T13:03:26;8.40;99.90
5136;DHT22;2586;48.710;9.202;2023-04-25T13:05:52;8.40;1.00
5136;DHT22;2586;48.710;9.202;2023-04-25T13:08:18;8.50;99.90
5136;DHT22;2586;48.710;9.202;2023-04-25T13:10:44;8.50;6.00
5136;DHT22;2586;48.710;9.202;2023-04-25T13:13:09;8.70;99.90
5136;DHT22;2586;48.710;9.202;2023-04-25T13:15:35;9.10;38.40
5136;DHT22;2586;48.710;9.202;2023-04-25T13:18:02;9.50;99.90
5136;DHT22;2586;48.710;9.202;2023-04-25T13:20:28;9.60;1.00
5136;DHT22;2586;48.710;9.202;2023-04-25T13:22:53;9.80;99.90
5136;DHT22;2586;48.710;9.202;2023-04-25T13:25:19;9.90;99.90
5136;DHT22;2586;48.710;9.202;2023-04-25T13:27:45;9.90;1.00
5136;DHT22;2586;48.710;9.202;2023-04-25T13:30:13;9.90;95.30
5136;DHT22;2586;48.710;9.202;2023-04-25T13:32:39;9.60;1.00
5136;DHT22;2586;48.710;9.202;2023-04-25T13:35:10;9.60;1.00
5136;DHT22;2586;48.710;9.202;2023-04-25T13:37:37;9.60;99.90
5136;DHT22;2586;48.710;9.202;2023-04-25T13:40:05;9.60;1.00
5136;DHT22;2586;48.710;9.202;2023-04-25T13:42:31;9.70;82.20
5136;DHT22;2586;48.710;9.202;2023-04-25T13:44:57;9.80;1.00
5136;DHT22;2586;48.710;9.202;2023-04-25T13:47:23;9.80;99.90
5136;DHT22;2586;48.710;9.202;2023-04-25T13:49:49;10.00;99.90
5136;DHT22;2586;48.710;9.202;2023-04-25T13:52:15;10.00;1.00
5136;DHT22;2586;48.710;9.202;2023-04-25T13:54:41;10.00;99.90
5136;DHT22;2586;48.710;9.202;2023-04-25T13:57:06;10.30;1.00
5136;DHT22;2586;48.710;9.202;2023-04-25T13:59:32;10.70;99.90
5136;DHT22;2586;48.710;9.202;2023-04-25T14:01:58;10.70;98.10
5136;DHT22;2586;48.710;9.202;2023-04-25T14:04:24;10.50;99.90
5136;DHT22;2586;48.710;9.202;2023-04-25T14:06:50;10.00;1.00
5136;DHT22;2586;48.710;9.202;2023-04-25T14:09:16;9.70;1.00
5136;DHT22;2586;48.710;9.202;2023-04-25T14:11:42;9.50;1.00
5136;DHT22;2586;48.710;9.202;2023-04-25T14:14:08;9.50;99.90
5136;DHT22;2586;48.710;9.202;2023-04-25T14:16:34;9.80;1.00
5136;DHT22;2586;48.710;9.202;2023-04-25T14:19:00;11.00;99.90
5136;DHT22;2586;48.710;9.202;2023-04-25T14:21:26;11.90;99.90
5136;DHT22;2586;48.710;9.202;2023-04-25T14:23:52;11.90;99.90
5136;DHT22;2586;48.710;9.202;2023-04-25T14:26:18;11.90;1.00
5136;DHT22;2586;48.710;9.202;2023-04-25T14:28:43;12.40;1.00
5136;DHT22;2586;48.710;9.202;2023-04-25T14:31:09;13.80;99.90
5136;DHT22;2586;48.710;9.202;2023-04-25T14:33:34;14.60;99.90
5136;DHT22;2586;48.710;9.202;2023-04-25T14:36:00;14.90;99.90
5136;DHT22;2586;48.710;9.202;2023-04-25T14:38:26;14.40;99.90
5136;DHT22;2586;48.710;9.202;2023-04-25T14:40:52;13.30;99.90
5136;DHT22;2586;48.710;9.202;2023-04-25T14:43:19;12.90;99.90
5136;DHT22;2586;48.710;9.202;2023-04-25T14:45:45;12.10;99.90
5136;DHT22;2586;48.710;9.202;2023-04-25T14:48:11;12.00;99.90
5136;DHT22;2586;48.710;9.202;2023-04-25T14:50:36;11.90;99.90
5136;DHT22;2586;48.710;9.202;2023-04-25T14:53:02;12.20;99.90
5136;DHT22;2586;48.710;9.202;2023-04-25T14:55:28;12.30;99.90
5136;DHT22;2586;48.710;9.202;2023-04-25T14:57:54;12.10;99.90
5136;DHT22;2586;48.710;9.202;2023-04-25T15:00:20;11.90;99.90
5136;DHT22;2586;48.710;9.202;2023-04-25T15:02:48;11.60;99.90
5136;DHT22;2586;48.710;9.202;2023-04-25T15:05:14;11.40;99.90
5136;DHT22;2586;48.710;9.202;2023-04-25T15:07:40;13.40;99.90
5136;DHT22;2586;48.710;9.202;2023-04-25T15:10:07;13.70;99.90
5136;DHT22;2586;48.710;9.202;2023-04-25T15:12:39;14.40;99.90
5136;DHT22;2586;48.710;9.202;2023-04-25T15:15:05;15.80;30.90
5136;DHT22;2586;48.710;9.202;2023-04-25T15:17:31;15.50;15.50
5136;DHT22;2586;48.710;9.202;2023-04-25T15:19:57;15.80;12.50
5136;DHT22;2586;48.710;9.202;2023-04-25T15:22:22;15.30;1.00
5136;DHT22;2586;48.710;9.202;2023-04-25T15:24:48;14.70;14.80
5136;DHT22;2586;48.710;9.202;2023-04-25T15:27:14;14.30;15.50
5136;DHT22;2586;48.710;9.202;2023-04-25T15:29:39;13.90;10.50
5136;DHT22;2586;48.710;9.202;2023-04-25T15:32:05;13.70;20.80
5136;DHT22;2586;48.710;9.202;2023-04-25T15:34:31;12.70;17.60
5136;DHT22;2586;48.710;9.202;2023-04-25T15:36:57;12.40;25.70
5136;DHT22;2586;48.710;9.202;2023-04-25T15:39:23;12.80;50.20
5136;DHT22;2586;48.710;9.202;2023-04-25T15:41:48;14.70;34.40
5136;DHT22;2586;48.710;9.202;2023-04-25T15:44:14;16.20;1.00
5136;DHT22;2586;48.710;9.202;2023-04-25T15:46:40;16.90;1.00
5136;DHT22;2586;48.710;9.202;2023-04-25T15:49:05;16.20;1.00
5136;DHT22;2586;48.710;9.202;2023-04-25T15:51:31;14.80;1.00
5136;DHT22;2586;48.710;9.202;2023-04-25T15:53:57;13.70;1.00
5136;DHT22;2586;48.710;9.202;2023-04-25T15:56:23;12.70;9.20
5136;DHT22;2586;48.710;9.202;2023-04-25T15:58:49;12.30;21.40
5136;DHT22;2586;48.710;9.202;2023-04-25T16:01:15;11.90;50.20
5136;DHT22;2586;48.710;9.202;2023-04-25T16:03:40;11.60;55.60
5136;DHT22;2586;48.710;9.202;2023-04-25T16:06:06;11.60;99.90
5136;DHT22;2586;48.710;9.202;2023-04-25T16:08:33;11.30;95.00
5136;DHT22;2586;48.710;9.202;2023-04-25T16:11:01;11.10;99.90
5136;DHT22;2586;48.710;9.202;2023-04-25T16:13:27;10.80;99.90
5136;DHT22;2586;48.710;9.202;2023-04-25T16:15:54;10.50;99.90
5136;DHT22;2586;48.710;9.202;2023-04-25T16:18:20;10.50;99.90
5136;DHT22;2586;48.710;9.202;2023-04-25T16:20:45;10.40;99.90
5136;DHT22;2586;48.710;9.202;2023-04-25T16:23:11;10.30;99.90
5136;DHT22;2586;48.710;9.202;2023-04-25T16:25:36;10.30;1.00
5136;DHT22;2586;48.710;9.202;2023-04-25T16:28:02;10.30;1.00